Terminal Aerodrome Forecast
Issued by NWS Upton, NY

Home | Current Version | Previous Version | Text Only | Print | Product List | Glossary On
Versions: 1 2 3 4 5 6 7 8 9 10 11 12 13 14 15 16 17 18 19 20 21 22 23 24 25 26 27 28 29 30 31 32 33 34 35
000
FTUS41 KOKX 251755 CCA
TAFISP
TAF COR
KISP 251755Z 2518/2618 08012G18KT 3SM -DZ BR OVC004
      TEMPO 2519/2521 1SM -DZ BR OVC004
     FM252100 07010KT 1SM -DZ BR OVC004
     FM260300 VRB05KT 2SM +SHRA BR OVC004 PROB30 2603/2609 1SM TSRA
      SCT006 OVC015CB
     FM261100 30008KT 6SM -SHRA SCT007 BKN012
     FM261500 29012KT P6SM SCT015 BKN025
     FM261700 29014G24KT P6SM SCT025 BKN035=

USA.gov is the U.S. government's official web portal to all federal, state and local government web resources and services.